createdAt,value
2022-12-03T00:01:41.436Z,14.27
2022-12-03T00:04:28.036Z,15.77
2022-12-03T00:07:14.416Z,15.13
2022-12-03T00:10:00.884Z,14.93
2022-12-03T00:12:47.456Z,15.37
2022-12-03T00:15:35.404Z,15.70
2022-12-03T00:18:22.147Z,17.07
2022-12-03T00:21:08.634Z,14.63
2022-12-03T00:23:55.052Z,16.37
2022-12-03T00:26:41.590Z,15.77
2022-12-03T00:29:28.414Z,16.50
2022-12-03T00:32:16.256Z,15.33
2022-12-03T00:35:03.134Z,14.00
2022-12-03T00:37:49.910Z,13.47
2022-12-03T00:40:36.355Z,15.90
2022-12-03T00:43:22.845Z,14.30
2022-12-03T00:46:09.412Z,15.23
2022-12-03T00:48:57.633Z,14.57
2022-12-03T00:51:44.503Z,14.97
2022-12-03T00:54:32.344Z,14.07
2022-12-03T00:57:19.133Z,14.23
2022-12-03T01:00:06.993Z,14.77
2022-12-03T01:02:53.878Z,14.73
2022-12-03T01:05:41.844Z,13.87
2022-12-03T01:08:28.608Z,14.90
2022-12-03T01:11:28.910Z,14.37
2022-12-03T01:14:18.416Z,13.63
2022-12-03T01:17:05.096Z,12.70
2022-12-03T01:19:52.570Z,14.27
2022-12-03T01:22:40.386Z,13.60
2022-12-03T01:25:27.075Z,13.33
2022-12-03T01:28:13.482Z,15.40
2022-12-03T01:31:17.446Z,14.63
2022-12-03T01:34:04.640Z,13.37
2022-12-03T01:36:52.411Z,14.80
2022-12-03T01:39:41.682Z,14.23
2022-12-03T01:42:31.242Z,13.93
2022-12-03T01:45:24.042Z,14.57
2022-12-03T01:48:13.674Z,16.37
2022-12-03T01:51:00.599Z,16.13
2022-12-03T01:53:47.708Z,15.97
2022-12-03T01:56:35.804Z,17.10
2022-12-03T01:59:28.101Z,17.23
2022-12-03T02:02:15.998Z,16.80
2022-12-03T02:05:07.109Z,16.43
2022-12-03T02:07:54.399Z,16.63
2022-12-03T02:10:41.065Z,16.30
2022-12-03T02:13:28.965Z,16.30
2022-12-03T02:16:16.050Z,15.33
2022-12-03T02:19:03.282Z,16.20
2022-12-03T02:21:58.384Z,15.13
2022-12-03T02:24:51.563Z,15.60
2022-12-03T02:27:39.616Z,14.77
2022-12-03T02:30:28.313Z,14.73
2022-12-03T02:33:15.175Z,15.40
2022-12-03T02:36:03.922Z,16.03
2022-12-03T02:38:52.067Z,15.00
2022-12-03T02:41:56.070Z,14.80
2022-12-03T02:44:44.153Z,13.87
2022-12-03T02:47:31.680Z,15.37
2022-12-03T02:50:22.868Z,16.43
2022-12-03T02:53:13.109Z,13.87
2022-12-03T02:56:02.681Z,13.87
2022-12-03T02:58:52.450Z,14.80
2022-12-03T03:01:40.492Z,14.40
2022-12-03T03:04:27.199Z,14.33
2022-12-03T03:07:13.770Z,14.80
2022-12-03T03:10:01.985Z,13.93
2022-12-03T03:12:49.261Z,13.70
2022-12-03T03:15:37.338Z,13.77
2022-12-03T03:18:25.798Z,14.07
2022-12-03T03:21:13.684Z,13.40
2022-12-03T03:24:00.488Z,11.90
2022-12-03T03:26:47.322Z,13.63
2022-12-03T03:29:35.775Z,13.53
2022-12-03T03:32:22.565Z,13.77
2022-12-03T03:35:11.877Z,12.67
2022-12-03T03:37:59.855Z,13.17
2022-12-03T03:40:46.839Z,12.30
2022-12-03T03:43:36.042Z,12.23
2022-12-03T03:46:22.998Z,12.40
2022-12-03T03:49:10.567Z,12.63
2022-12-03T03:51:58.738Z,13.40
2022-12-03T03:54:45.901Z,13.13
2022-12-03T03:57:32.348Z,12.57
2022-12-03T04:00:19.510Z,12.80
2022-12-03T04:03:06.664Z,13.17
2022-12-03T04:05:53.541Z,14.47
2022-12-03T04:08:41.341Z,12.90
2022-12-03T04:11:45.464Z,14.07
2022-12-03T04:14:32.349Z,13.93
2022-12-03T04:17:18.933Z,13.60
2022-12-03T04:20:06.405Z,13.90
2022-12-03T04:22:52.183Z,14.57
2022-12-03T04:25:57.568Z,14.37
2022-12-03T04:28:52.912Z,14.17
2022-12-03T04:31:57.193Z,14.27
2022-12-03T04:35:01.304Z,14.67
2022-12-03T04:37:47.867Z,15.50
2022-12-03T04:40:51.692Z,15.50
2022-12-03T04:44:00.438Z,14.20
2022-12-03T04:46:47.071Z,15.10
2022-12-03T04:49:34.025Z,15.00
2022-12-03T04:52:21.732Z,14.50
2022-12-03T04:55:09.208Z,15.20
2022-12-03T04:57:55.797Z,14.43
2022-12-03T05:00:43.545Z,15.97
2022-12-03T05:03:30.267Z,13.73
2022-12-03T05:06:16.678Z,13.87
2022-12-03T05:09:03.101Z,14.27
2022-12-03T05:11:49.627Z,13.77
2022-12-03T05:14:36.065Z,15.63
2022-12-03T05:17:24.036Z,14.77
2022-12-03T05:20:29.008Z,13.60
2022-12-03T05:23:16.048Z,13.90
2022-12-03T05:26:02.776Z,12.17
2022-12-03T05:28:49.217Z,12.70
2022-12-03T05:31:35.783Z,13.27
2022-12-03T05:34:23.745Z,14.37
2022-12-03T05:37:10.519Z,13.63
2022-12-03T05:39:57.025Z,13.33
2022-12-03T05:42:56.921Z,13.63
2022-12-03T05:45:45.317Z,13.63
2022-12-03T05:48:32.047Z,13.07
2022-12-03T05:51:20.120Z,12.93
2022-12-03T05:54:06.932Z,11.27
2022-12-03T05:56:54.417Z,11.03
2022-12-03T05:59:41.231Z,9.97
2022-12-03T06:02:27.785Z,12.27
2022-12-03T06:05:16.055Z,9.93
2022-12-03T06:08:04.021Z,10.20
2022-12-03T06:10:50.631Z,10.17
2022-12-03T06:13:37.127Z,9.60
2022-12-03T06:16:23.767Z,9.47
2022-12-03T06:19:10.666Z,10.47
2022-12-03T06:21:57.077Z,9.50
2022-12-03T06:24:45.053Z,11.17
2022-12-03T06:27:31.783Z,10.13
2022-12-03T06:30:19.012Z,10.37
2022-12-03T06:33:05.512Z,10.53
2022-12-03T06:35:52.541Z,9.50
2022-12-03T06:38:39.172Z,11.17
2022-12-03T06:41:27.037Z,10.00
2022-12-03T06:44:13.639Z,10.73
2022-12-03T06:47:00.184Z,10.00
2022-12-03T06:49:46.948Z,10.43
2022-12-03T06:52:33.664Z,10.93
2022-12-03T06:55:20.115Z,10.83
2022-12-03T06:58:08.083Z,11.40
2022-12-03T07:00:54.780Z,11.70
2022-12-03T07:03:41.307Z,11.63
2022-12-03T07:06:27.649Z,11.87
2022-12-03T07:09:16.330Z,12.63
2022-12-03T07:12:03.107Z,13.20
2022-12-03T07:14:51.182Z,12.83
2022-12-03T07:17:38.260Z,14.20
2022-12-03T07:20:25.001Z,14.80
2022-12-03T07:23:11.366Z,14.03
2022-12-03T07:25:57.776Z,14.53
2022-12-03T07:28:44.339Z,13.47
2022-12-03T07:31:32.295Z,14.93
2022-12-03T07:34:18.875Z,14.10
2022-12-03T07:37:05.430Z,14.53
2022-12-03T07:39:52.415Z,14.23
2022-12-03T07:42:39.185Z,14.40
2022-12-03T07:45:25.878Z,14.27
2022-12-03T07:48:13.750Z,15.77
2022-12-03T07:51:00.419Z,14.77
2022-12-03T07:53:46.816Z,13.57
2022-12-03T07:56:33.609Z,14.70
2022-12-03T07:59:20.521Z,13.50
2022-12-03T08:02:07.506Z,14.13
2022-12-03T08:04:56.023Z,14.73
2022-12-03T08:07:43.078Z,14.43
2022-12-03T08:10:29.496Z,15.07
2022-12-03T08:13:17.832Z,15.43
2022-12-03T08:16:15.473Z,16.47
2022-12-03T08:19:03.586Z,13.73
2022-12-03T08:21:55.190Z,15.53
2022-12-03T08:24:45.088Z,14.23
2022-12-03T08:27:31.540Z,14.10
2022-12-03T08:30:18.911Z,14.20
2022-12-03T08:33:16.538Z,16.00
2022-12-03T08:36:07.113Z,16.13
2022-12-03T08:38:57.973Z,15.53
2022-12-03T08:42:01.824Z,14.90
2022-12-03T08:44:48.869Z,15.80
2022-12-03T08:47:35.841Z,13.67
2022-12-03T08:50:28.307Z,16.83
2022-12-03T08:53:29.432Z,16.03
2022-12-03T08:56:25.230Z,16.57
2022-12-03T08:59:27.614Z,16.77
2022-12-03T09:02:24.467Z,16.53
2022-12-03T09:05:17.393Z,16.23
2022-12-03T09:08:04.230Z,16.90
2022-12-03T09:10:50.886Z,15.07
2022-12-03T09:13:38.692Z,16.10
2022-12-03T09:16:25.104Z,16.83
2022-12-03T09:19:12.066Z,16.17
2022-12-03T09:21:58.740Z,16.83
2022-12-03T09:24:45.667Z,16.20
2022-12-03T09:27:32.296Z,15.37
2022-12-03T09:30:20.475Z,14.70
2022-12-03T09:33:06.992Z,13.87
2022-12-03T09:35:53.546Z,15.40
2022-12-03T09:38:46.011Z,16.27
2022-12-03T09:41:34.165Z,16.83
2022-12-03T09:44:20.776Z,16.43
2022-12-03T09:47:09.238Z,15.67
2022-12-03T09:49:58.044Z,15.53
2022-12-03T09:52:46.919Z,14.83
2022-12-03T09:55:33.794Z,15.93
2022-12-03T09:58:21.149Z,14.43
2022-12-03T10:01:14.672Z,16.53
2022-12-03T10:04:03.158Z,15.83
2022-12-03T10:06:50.015Z,15.53
2022-12-03T10:09:36.602Z,15.27
2022-12-03T10:12:25.874Z,15.40
2022-12-03T10:15:14.936Z,17.33
2022-12-03T10:18:08.190Z,16.43
2022-12-03T10:20:56.793Z,16.07
2022-12-03T10:23:43.899Z,17.77
2022-12-03T10:26:40.855Z,16.70
2022-12-03T10:29:33.568Z,17.50
2022-12-03T10:32:26.798Z,16.70
2022-12-03T10:35:15.229Z,17.13
2022-12-03T10:38:05.265Z,15.90
2022-12-03T10:40:52.485Z,18.20
2022-12-03T10:43:39.165Z,16.33
2022-12-03T10:46:25.903Z,15.97
2022-12-03T10:49:18.173Z,16.50
2022-12-03T10:52:05.520Z,17.53
2022-12-03T10:54:53.828Z,16.20
2022-12-03T10:57:45.613Z,16.00
2022-12-03T11:00:32.632Z,15.80
2022-12-03T11:03:22.088Z,16.17
2022-12-03T11:06:16.258Z,17.23
2022-12-03T11:09:08.830Z,18.40
2022-12-03T11:11:57.693Z,18.03
2022-12-03T11:15:07.318Z,17.27
2022-12-03T11:17:54.626Z,17.30
2022-12-03T11:21:09.732Z,18.27
2022-12-03T11:24:18.553Z,16.70
2022-12-03T11:27:30.604Z,17.43
2022-12-03T11:30:56.511Z,16.37
2022-12-03T11:33:44.617Z,15.93
2022-12-03T11:36:54.008Z,17.80
2022-12-03T11:40:25.507Z,16.70
2022-12-03T11:43:13.394Z,17.07
2022-12-03T11:46:09.619Z,16.53
2022-12-03T11:48:59.803Z,17.03
2022-12-03T11:51:46.620Z,17.07
2022-12-03T11:54:36.276Z,16.90
2022-12-03T11:57:32.748Z,18.13
2022-12-03T12:00:24.695Z,16.80
2022-12-03T12:03:23.492Z,17.87
2022-12-03T12:06:11.871Z,17.13
2022-12-03T12:09:00.848Z,17.97
2022-12-03T12:11:47.742Z,18.07
2022-12-03T12:14:34.304Z,17.63
2022-12-03T12:17:33.668Z,16.40
2022-12-03T12:20:29.319Z,16.70
2022-12-03T12:23:27.876Z,17.13
2022-12-03T12:26:14.399Z,17.00
2022-12-03T12:29:01.284Z,15.97
2022-12-03T12:31:53.511Z,17.13
2022-12-03T12:34:43.947Z,17.77
2022-12-03T12:37:36.683Z,16.83
2022-12-03T12:40:26.834Z,18.50
2022-12-03T12:43:24.340Z,16.63
2022-12-03T12:46:46.232Z,16.50
2022-12-03T12:49:26.771Z,16.30
2022-12-03T12:52:16.010Z,18.33
2022-12-03T12:55:05.206Z,17.27
2022-12-03T12:57:52.670Z,18.37
2022-12-03T13:00:39.227Z,17.10
2022-12-03T13:03:28.048Z,17.30
2022-12-03T13:06:17.562Z,17.70
2022-12-03T13:09:10.275Z,16.87
2022-12-03T13:11:59.578Z,17.97
2022-12-03T13:14:46.535Z,18.17
2022-12-03T13:17:33.279Z,18.23
2022-12-03T13:20:21.740Z,16.93
2022-12-03T13:23:24.005Z,17.27
2022-12-03T13:26:32.787Z,18.40
2022-12-03T13:29:22.696Z,16.83
2022-12-03T13:32:12.909Z,17.47
2022-12-03T13:35:05.099Z,18.23
2022-12-03T13:37:51.817Z,19.00
2022-12-03T13:40:39.289Z,20.50
2022-12-03T13:43:31.668Z,18.97
2022-12-03T13:46:18.268Z,18.57
2022-12-03T13:49:14.738Z,16.77
2022-12-03T13:52:02.004Z,19.33
2022-12-03T13:54:52.309Z,18.03
2022-12-03T13:57:38.988Z,18.23
2022-12-03T14:00:26.862Z,17.23
2022-12-03T14:03:13.902Z,18.23
2022-12-03T14:06:00.654Z,16.10
2022-12-03T14:08:47.171Z,18.60
2022-12-03T14:11:51.171Z,17.37
2022-12-03T14:14:37.888Z,18.13
2022-12-03T14:17:25.798Z,19.13
2022-12-03T14:20:13.458Z,17.70
2022-12-03T14:22:59.927Z,19.33
2022-12-03T14:25:46.432Z,17.50
2022-12-03T14:28:32.903Z,24.30
2022-12-03T14:31:19.453Z,18.10
2022-12-03T14:34:07.746Z,17.87
2022-12-03T14:36:54.536Z,18.33
2022-12-03T14:39:41.765Z,18.43
2022-12-03T14:42:28.227Z,19.53
2022-12-03T14:45:14.955Z,17.40
2022-12-03T14:48:01.508Z,18.97
2022-12-03T14:50:49.313Z,17.77
2022-12-03T14:53:36.227Z,18.30
2022-12-03T14:56:23.135Z,19.10
2022-12-03T14:59:09.626Z,18.13
2022-12-03T15:01:56.362Z,18.33
2022-12-03T15:04:43.306Z,18.30
2022-12-03T15:07:32.329Z,17.87
2022-12-03T15:10:19.318Z,19.30
2022-12-03T15:13:05.964Z,17.20
2022-12-03T15:16:08.566Z,17.10
2022-12-03T15:18:55.164Z,17.13
2022-12-03T15:21:41.954Z,17.57
2022-12-03T15:24:30.371Z,18.60
2022-12-03T15:27:17.050Z,17.97
2022-12-03T15:30:03.545Z,18.37
2022-12-03T15:32:50.436Z,18.90
2022-12-03T15:35:37.181Z,18.53
2022-12-03T15:38:23.602Z,18.60
2022-12-03T15:41:28.791Z,19.60
2022-12-03T15:44:15.559Z,18.30
2022-12-03T15:47:02.074Z,19.47
2022-12-03T15:49:48.918Z,18.77
2022-12-03T15:52:36.397Z,19.30
2022-12-03T15:55:22.912Z,18.47
2022-12-03T15:58:10.728Z,19.50
2022-12-03T16:00:57.495Z,19.33
2022-12-03T16:03:43.959Z,18.70
2022-12-03T16:06:30.475Z,19.73
2022-12-03T16:09:19.096Z,20.00
2022-12-03T16:12:09.365Z,19.87
2022-12-03T16:14:57.179Z,19.17
2022-12-03T16:17:43.791Z,20.37
2022-12-03T16:20:30.639Z,19.00
2022-12-03T16:23:17.367Z,19.27
2022-12-03T16:26:03.679Z,19.47
2022-12-03T16:28:50.143Z,19.97
2022-12-03T16:31:37.985Z,19.57
2022-12-03T16:34:24.718Z,18.00
2022-12-03T16:37:11.533Z,18.53
2022-12-03T16:39:58.413Z,20.57
2022-12-03T16:42:44.866Z,19.17
2022-12-03T16:45:48.498Z,18.93
2022-12-03T16:48:36.784Z,17.80
2022-12-03T16:51:23.942Z,18.57
2022-12-03T16:54:11.742Z,18.50
2022-12-03T16:56:58.481Z,19.50
2022-12-03T16:59:44.956Z,19.00
2022-12-03T17:02:31.376Z,18.63
2022-12-03T17:05:19.813Z,19.70
2022-12-03T17:08:06.782Z,20.53
2022-12-03T17:10:53.648Z,19.53
2022-12-03T17:13:40.708Z,19.83
2022-12-03T17:16:27.728Z,19.50
2022-12-03T17:19:14.896Z,20.03
2022-12-03T17:22:02.772Z,19.03
2022-12-03T17:24:49.590Z,19.53
2022-12-03T17:27:38.690Z,18.57
2022-12-03T17:30:30.190Z,19.73
2022-12-03T17:33:16.601Z,18.37
2022-12-03T17:36:03.464Z,19.00
2022-12-03T17:38:51.398Z,19.13
2022-12-03T17:41:38.040Z,19.30
2022-12-03T17:44:24.723Z,20.27
2022-12-03T17:47:11.487Z,19.23
2022-12-03T17:49:58.092Z,19.20
2022-12-03T17:52:44.688Z,18.37
2022-12-03T17:55:39.696Z,20.47
2022-12-03T17:58:31.195Z,18.83
2022-12-03T18:01:17.735Z,19.00
2022-12-03T18:04:04.975Z,18.90
2022-12-03T18:06:51.543Z,18.90
2022-12-03T18:09:37.988Z,18.93
2022-12-03T18:12:25.923Z,20.40
2022-12-03T18:15:12.785Z,19.40
2022-12-03T18:17:59.552Z,18.73
2022-12-03T18:20:46.056Z,19.73
2022-12-03T18:23:33.271Z,19.37
2022-12-03T18:26:19.708Z,18.80
2022-12-03T18:29:07.525Z,19.10
2022-12-03T18:31:54.351Z,20.20
2022-12-03T18:34:42.498Z,18.63
2022-12-03T18:37:30.393Z,18.33
2022-12-03T18:40:20.159Z,18.63
2022-12-03T18:43:12.196Z,18.67
2022-12-03T18:46:00.075Z,18.83
2022-12-03T18:48:48.839Z,18.40
2022-12-03T18:51:35.362Z,18.27
2022-12-03T18:54:21.767Z,18.77
2022-12-03T18:57:08.440Z,18.47
2022-12-03T18:59:55.471Z,18.03
2022-12-03T19:03:02.427Z,19.90
2022-12-03T19:05:50.081Z,17.07
2022-12-03T19:08:36.411Z,16.87
2022-12-03T19:11:23.081Z,18.73
2022-12-03T19:14:11.038Z,19.17
2022-12-03T19:16:57.588Z,18.50
2022-12-03T19:19:46.475Z,16.90
2022-12-03T19:22:33.312Z,18.20
2022-12-03T19:25:19.852Z,17.30
2022-12-03T19:28:06.451Z,19.50
2022-12-03T19:31:00.897Z,18.37
2022-12-03T19:33:47.839Z,18.00
2022-12-03T19:36:35.728Z,18.30
2022-12-03T19:39:22.411Z,18.57
2022-12-03T19:42:08.768Z,17.03
2022-12-03T19:44:55.269Z,18.23
2022-12-03T19:47:41.639Z,18.17
2022-12-03T19:50:28.302Z,18.50
2022-12-03T19:53:16.274Z,18.07
2022-12-03T19:56:03.490Z,19.80
2022-12-03T19:58:49.910Z,18.83
2022-12-03T20:01:40.382Z,19.43
2022-12-03T20:04:27.574Z,18.13
2022-12-03T20:07:14.106Z,19.70
2022-12-03T20:10:02.060Z,18.77
2022-12-03T20:12:48.904Z,19.97
2022-12-03T20:15:38.231Z,18.60
2022-12-03T20:18:24.600Z,19.23
2022-12-03T20:21:11.935Z,17.97
2022-12-03T20:23:58.598Z,19.40
2022-12-03T20:26:46.690Z,19.33
2022-12-03T20:29:33.464Z,17.30
2022-12-03T20:32:20.116Z,18.90
2022-12-03T20:35:07.591Z,18.23
2022-12-03T20:37:53.952Z,18.70
2022-12-03T20:40:40.534Z,18.53
2022-12-03T20:43:28.281Z,18.80
2022-12-03T20:46:16.916Z,18.87
2022-12-03T20:49:03.988Z,17.90
2022-12-03T20:51:52.003Z,18.23
2022-12-03T20:54:39.580Z,18.83
2022-12-03T20:57:26.418Z,18.07
2022-12-03T21:00:15.494Z,17.73
2022-12-03T21:03:02.101Z,19.17
2022-12-03T21:05:49.532Z,18.23
2022-12-03T21:08:41.521Z,16.73
2022-12-03T21:11:31.225Z,17.70
2022-12-03T21:14:17.691Z,17.20
2022-12-03T21:17:08.791Z,18.53
2022-12-03T21:19:56.611Z,17.83
2022-12-03T21:22:43.419Z,17.40
2022-12-03T21:25:30.187Z,18.27
2022-12-03T21:28:16.948Z,18.93
2022-12-03T21:31:05.482Z,18.67
2022-12-03T21:33:53.899Z,17.27
2022-12-03T21:36:40.661Z,17.57
2022-12-03T21:39:27.174Z,18.30
2022-12-03T21:42:34.800Z,17.80
2022-12-03T21:45:20.184Z,17.30
2022-12-03T21:48:07.400Z,18.53
2022-12-03T21:51:06.762Z,18.80
2022-12-03T21:53:53.307Z,18.50
2022-12-03T21:56:39.859Z,19.03
2022-12-03T21:59:26.381Z,18.47
2022-12-03T22:02:13.223Z,18.23
2022-12-03T22:05:00.126Z,18.57
2022-12-03T22:07:48.033Z,17.60
2022-12-03T22:10:34.880Z,17.97
2022-12-03T22:13:21.410Z,18.07
2022-12-03T22:16:09.747Z,18.07
2022-12-03T22:18:56.553Z,18.90
2022-12-03T22:21:43.207Z,18.00
2022-12-03T22:24:31.596Z,18.93
2022-12-03T22:27:18.132Z,17.77
2022-12-03T22:30:06.116Z,17.77
2022-12-03T22:32:52.946Z,18.50
2022-12-03T22:35:40.211Z,17.63
2022-12-03T22:38:27.248Z,16.37
2022-12-03T22:41:15.766Z,17.17
2022-12-03T22:44:02.283Z,19.20
2022-12-03T22:46:48.679Z,17.50
2022-12-03T22:49:35.645Z,18.90
2022-12-03T22:52:22.111Z,17.03
2022-12-03T22:55:09.220Z,16.07
2022-12-03T22:57:56.967Z,18.00
2022-12-03T23:00:43.812Z,16.73
2022-12-03T23:03:30.325Z,17.80
2022-12-03T23:06:17.302Z,18.13
2022-12-03T23:09:05.212Z,17.27
2022-12-03T23:11:51.747Z,17.70
2022-12-03T23:14:39.580Z,16.57
2022-12-03T23:17:26.187Z,17.67
2022-12-03T23:20:13.828Z,19.83
2022-12-03T23:23:00.455Z,17.87
2022-12-03T23:25:57.596Z,17.43
2022-12-03T23:28:45.880Z,18.10
2022-12-03T23:31:34.878Z,17.53
2022-12-03T23:34:21.636Z,17.37
2022-12-03T23:37:08.213Z,17.10
2022-12-03T23:39:54.819Z,17.83
2022-12-03T23:42:41.791Z,18.63
2022-12-03T23:45:28.372Z,18.80
2022-12-03T23:48:16.096Z,18.00
2022-12-03T23:51:07.958Z,17.33
2022-12-03T23:53:55.577Z,18.03
2022-12-03T23:56:42.462Z,18.03
2022-12-03T23:59:29.195Z,17.97
